sensor_id;sensor_type;location;lat;lon;timestamp;temperature;humidity
1936;DHT22;969;49.892;10.896;2023-08-31T00:01:39;24.10;56.60
1936;DHT22;969;49.892;10.896;2023-08-31T00:04:04;24.10;56.60
1936;DHT22;969;49.892;10.896;2023-08-31T00:06:33;24.10;56.60
1936;DHT22;969;49.892;10.896;2023-08-31T00:08:59;24.10;56.50
1936;DHT22;969;49.892;10.896;2023-08-31T00:11:24;24.10;56.50
1936;DHT22;969;49.892;10.896;2023-08-31T00:13:51;24.10;56.50
1936;DHT22;969;49.892;10.896;2023-08-31T00:16:17;24.10;56.40
1936;DHT22;969;49.892;10.896;2023-08-31T00:18:44;24.10;56.40
1936;DHT22;969;49.892;10.896;2023-08-31T00:21:10;24.00;56.40
1936;DHT22;969;49.892;10.896;2023-08-31T00:23:36;24.00;56.50
1936;DHT22;969;49.892;10.896;2023-08-31T00:26:02;24.00;56.50
1936;DHT22;969;49.892;10.896;2023-08-31T00:28:28;24.00;56.50
1936;DHT22;969;49.892;10.896;2023-08-31T00:30:54;24.10;56.50
1936;DHT22;969;49.892;10.896;2023-08-31T00:33:19;24.00;56.40
1936;DHT22;969;49.892;10.896;2023-08-31T00:35:45;24.00;56.30
1936;DHT22;969;49.892;10.896;2023-08-31T00:38:14;24.00;56.40
1936;DHT22;969;49.892;10.896;2023-08-31T00:40:44;24.00;56.30
1936;DHT22;969;49.892;10.896;2023-08-31T00:43:15;24.00;56.40
1936;DHT22;969;49.892;10.896;2023-08-31T00:45:42;24.00;56.30
1936;DHT22;969;49.892;10.896;2023-08-31T00:48:08;24.00;56.70
1936;DHT22;969;49.892;10.896;2023-08-31T00:50:34;24.00;56.40
1936;DHT22;969;49.892;10.896;2023-08-31T00:53:00;24.00;56.40
1936;DHT22;969;49.892;10.896;2023-08-31T00:55:25;24.00;56.30
1936;DHT22;969;49.892;10.896;2023-08-31T00:57:52;24.00;56.30
1936;DHT22;969;49.892;10.896;2023-08-31T01:00:18;24.00;56.30
1936;DHT22;969;49.892;10.896;2023-08-31T01:02:58;24.00;56.40
1936;DHT22;969;49.892;10.896;2023-08-31T01:05:55;24.00;56.30
1936;DHT22;969;49.892;10.896;2023-08-31T01:08:47;24.00;56.30
1936;DHT22;969;49.892;10.896;2023-08-31T01:11:24;24.00;56.40
1936;DHT22;969;49.892;10.896;2023-08-31T01:14:00;24.00;56.50
1936;DHT22;969;49.892;10.896;2023-08-31T01:16:29;24.00;56.50
1936;DHT22;969;49.892;10.896;2023-08-31T01:18:56;23.90;56.40
1936;DHT22;969;49.892;10.896;2023-08-31T01:21:30;23.90;56.40
1936;DHT22;969;49.892;10.896;2023-08-31T01:23:58;24.00;56.50
1936;DHT22;969;49.892;10.896;2023-08-31T01:26:24;23.90;56.40
1936;DHT22;969;49.892;10.896;2023-08-31T01:28:51;23.90;56.40
1936;DHT22;969;49.892;10.896;2023-08-31T01:31:17;23.90;56.40
1936;DHT22;969;49.892;10.896;2023-08-31T01:33:43;23.90;56.40
1936;DHT22;969;49.892;10.896;2023-08-31T01:36:17;23.90;56.90
1936;DHT22;969;49.892;10.896;2023-08-31T01:38:47;23.90;56.30
1936;DHT22;969;49.892;10.896;2023-08-31T01:41:17;23.90;56.30
1936;DHT22;969;49.892;10.896;2023-08-31T01:43:43;23.90;56.30
1936;DHT22;969;49.892;10.896;2023-08-31T01:46:10;23.90;56.30
1936;DHT22;969;49.892;10.896;2023-08-31T01:48:41;24.00;56.30
1936;DHT22;969;49.892;10.896;2023-08-31T01:51:08;23.90;56.30
1936;DHT22;969;49.892;10.896;2023-08-31T01:53:34;23.90;56.30
1936;DHT22;969;49.892;10.896;2023-08-31T01:56:00;23.90;56.20
1936;DHT22;969;49.892;10.896;2023-08-31T01:58:25;23.90;56.20
1936;DHT22;969;49.892;10.896;2023-08-31T02:00:51;23.90;56.20
1936;DHT22;969;49.892;10.896;2023-08-31T02:03:16;23.90;56.20
1936;DHT22;969;49.892;10.896;2023-08-31T02:05:42;23.90;56.20
1936;DHT22;969;49.892;10.896;2023-08-31T02:08:07;23.90;56.20
1936;DHT22;969;49.892;10.896;2023-08-31T02:10:33;23.90;56.20
1936;DHT22;969;49.892;10.896;2023-08-31T02:12:59;23.90;56.20
1936;DHT22;969;49.892;10.896;2023-08-31T02:15:25;23.90;56.20
1936;DHT22;969;49.892;10.896;2023-08-31T02:17:52;23.90;56.20
1936;DHT22;969;49.892;10.896;2023-08-31T02:20:18;23.90;56.20
1936;DHT22;969;49.892;10.896;2023-08-31T02:22:45;23.90;56.30
1936;DHT22;969;49.892;10.896;2023-08-31T02:25:11;23.90;56.20
1936;DHT22;969;49.892;10.896;2023-08-31T02:27:37;23.90;56.30
1936;DHT22;969;49.892;10.896;2023-08-31T02:30:04;23.90;56.30
1936;DHT22;969;49.892;10.896;2023-08-31T02:32:30;23.90;56.30
1936;DHT22;969;49.892;10.896;2023-08-31T02:34:56;23.90;56.30
1936;DHT22;969;49.892;10.896;2023-08-31T02:37:21;23.90;56.30
1936;DHT22;969;49.892;10.896;2023-08-31T02:39:47;23.90;56.30
1936;DHT22;969;49.892;10.896;2023-08-31T02:42:14;23.90;56.30
1936;DHT22;969;49.892;10.896;2023-08-31T02:44:40;23.90;56.30
1936;DHT22;969;49.892;10.896;2023-08-31T02:47:05;23.90;56.30
1936;DHT22;969;49.892;10.896;2023-08-31T02:49:31;23.80;56.20
1936;DHT22;969;49.892;10.896;2023-08-31T02:51:57;23.80;56.20
1936;DHT22;969;49.892;10.896;2023-08-31T02:54:22;23.80;56.30
1936;DHT22;969;49.892;10.896;2023-08-31T02:56:48;23.80;56.30
1936;DHT22;969;49.892;10.896;2023-08-31T02:59:13;23.80;56.30
1936;DHT22;969;49.892;10.896;2023-08-31T03:01:39;23.90;56.40
1936;DHT22;969;49.892;10.896;2023-08-31T03:04:05;23.90;56.40
1936;DHT22;969;49.892;10.896;2023-08-31T03:06:32;23.90;56.40
1936;DHT22;969;49.892;10.896;2023-08-31T03:08:58;23.80;56.30
1936;DHT22;969;49.892;10.896;2023-08-31T03:11:23;23.80;56.30
1936;DHT22;969;49.892;10.896;2023-08-31T03:13:49;23.90;56.40
1936;DHT22;969;49.892;10.896;2023-08-31T03:16:15;23.80;56.30
1936;DHT22;969;49.892;10.896;2023-08-31T03:18:40;23.80;56.30
1936;DHT22;969;49.892;10.896;2023-08-31T03:21:06;23.90;56.40
1936;DHT22;969;49.892;10.896;2023-08-31T03:23:31;23.80;56.40
1936;DHT22;969;49.892;10.896;2023-08-31T03:25:57;23.80;56.30
1936;DHT22;969;49.892;10.896;2023-08-31T03:28:23;23.80;56.30
1936;DHT22;969;49.892;10.896;2023-08-31T03:30:55;23.80;56.30
1936;DHT22;969;49.892;10.896;2023-08-31T03:33:21;23.80;56.30
1936;DHT22;969;49.892;10.896;2023-08-31T03:35:47;23.80;56.30
1936;DHT22;969;49.892;10.896;2023-08-31T03:38:12;23.80;56.30
1936;DHT22;969;49.892;10.896;2023-08-31T03:40:38;23.80;56.30
1936;DHT22;969;49.892;10.896;2023-08-31T03:43:03;23.80;56.30
1936;DHT22;969;49.892;10.896;2023-08-31T03:45:29;23.80;56.30
1936;DHT22;969;49.892;10.896;2023-08-31T03:47:54;23.80;56.30
1936;DHT22;969;49.892;10.896;2023-08-31T03:50:20;23.80;56.30
1936;DHT22;969;49.892;10.896;2023-08-31T03:52:46;23.80;56.30
1936;DHT22;969;49.892;10.896;2023-08-31T03:55:11;23.80;56.30
1936;DHT22;969;49.892;10.896;2023-08-31T03:57:37;23.80;56.40
1936;DHT22;969;49.892;10.896;2023-08-31T04:00:03;23.80;56.30
1936;DHT22;969;49.892;10.896;2023-08-31T04:02:34;23.80;56.40
1936;DHT22;969;49.892;10.896;2023-08-31T04:05:00;23.80;56.30
1936;DHT22;969;49.892;10.896;2023-08-31T04:07:26;23.80;56.30
1936;DHT22;969;49.892;10.896;2023-08-31T04:09:51;23.80;56.30
1936;DHT22;969;49.892;10.896;2023-08-31T04:12:17;23.80;56.40
1936;DHT22;969;49.892;10.896;2023-08-31T04:14:42;23.80;56.40
1936;DHT22;969;49.892;10.896;2023-08-31T04:17:08;23.80;56.40
1936;DHT22;969;49.892;10.896;2023-08-31T04:19:34;23.80;56.40
1936;DHT22;969;49.892;10.896;2023-08-31T04:21:59;23.80;56.40
1936;DHT22;969;49.892;10.896;2023-08-31T04:24:26;23.80;56.40
1936;DHT22;969;49.892;10.896;2023-08-31T04:26:52;23.80;56.40
1936;DHT22;969;49.892;10.896;2023-08-31T04:29:17;23.80;56.40
1936;DHT22;969;49.892;10.896;2023-08-31T04:31:43;23.80;56.50
1936;DHT22;969;49.892;10.896;2023-08-31T04:34:08;23.80;56.50
1936;DHT22;969;49.892;10.896;2023-08-31T04:36:34;23.80;56.50
1936;DHT22;969;49.892;10.896;2023-08-31T04:39:00;23.80;57.10
1936;DHT22;969;49.892;10.896;2023-08-31T04:41:25;23.80;56.40
1936;DHT22;969;49.892;10.896;2023-08-31T04:43:51;23.80;56.40
1936;DHT22;969;49.892;10.896;2023-08-31T04:46:17;23.80;56.40
1936;DHT22;969;49.892;10.896;2023-08-31T04:48:42;23.80;56.40
1936;DHT22;969;49.892;10.896;2023-08-31T04:51:26;23.70;56.20
1936;DHT22;969;49.892;10.896;2023-08-31T04:53:52;23.70;56.20
1936;DHT22;969;49.892;10.896;2023-08-31T04:56:17;23.80;56.30
1936;DHT22;969;49.892;10.896;2023-08-31T04:58:43;23.70;56.20
1936;DHT22;969;49.892;10.896;2023-08-31T05:01:08;23.70;56.20
1936;DHT22;969;49.892;10.896;2023-08-31T05:03:34;23.70;56.20
1936;DHT22;969;49.892;10.896;2023-08-31T05:06:00;23.70;56.20
1936;DHT22;969;49.892;10.896;2023-08-31T05:08:26;23.70;56.20
1936;DHT22;969;49.892;10.896;2023-08-31T05:10:51;23.70;56.20
1936;DHT22;969;49.892;10.896;2023-08-31T05:13:17;23.70;56.20
1936;DHT22;969;49.892;10.896;2023-08-31T05:15:42;23.70;56.20
1936;DHT22;969;49.892;10.896;2023-08-31T05:18:08;23.70;56.20
1936;DHT22;969;49.892;10.896;2023-08-31T05:20:34;23.70;56.10
1936;DHT22;969;49.892;10.896;2023-08-31T05:22:59;23.70;56.10
1936;DHT22;969;49.892;10.896;2023-08-31T05:25:25;23.70;56.20
1936;DHT22;969;49.892;10.896;2023-08-31T05:27:51;23.70;56.20
1936;DHT22;969;49.892;10.896;2023-08-31T05:30:16;23.70;56.20
1936;DHT22;969;49.892;10.896;2023-08-31T05:32:42;23.70;56.20
1936;DHT22;969;49.892;10.896;2023-08-31T05:35:08;23.70;56.20
1936;DHT22;969;49.892;10.896;2023-08-31T05:37:34;23.70;56.20
1936;DHT22;969;49.892;10.896;2023-08-31T05:40:01;23.70;56.20
1936;DHT22;969;49.892;10.896;2023-08-31T05:42:27;23.70;56.30
1936;DHT22;969;49.892;10.896;2023-08-31T05:44:52;23.70;56.20
1936;DHT22;969;49.892;10.896;2023-08-31T05:47:18;23.70;56.20
1936;DHT22;969;49.892;10.896;2023-08-31T05:49:43;23.70;56.20
1936;DHT22;969;49.892;10.896;2023-08-31T05:52:09;23.70;56.30
1936;DHT22;969;49.892;10.896;2023-08-31T05:54:35;23.70;56.20
1936;DHT22;969;49.892;10.896;2023-08-31T05:57:02;23.70;56.20
1936;DHT22;969;49.892;10.896;2023-08-31T05:59:29;23.70;56.20
1936;DHT22;969;49.892;10.896;2023-08-31T06:01:54;23.70;56.20
1936;DHT22;969;49.892;10.896;2023-08-31T06:04:20;23.70;56.20
1936;DHT22;969;49.892;10.896;2023-08-31T06:06:45;23.70;56.30
1936;DHT22;969;49.892;10.896;2023-08-31T06:09:11;23.70;56.40
1936;DHT22;969;49.892;10.896;2023-08-31T06:11:37;23.70;56.30
1936;DHT22;969;49.892;10.896;2023-08-31T06:14:04;23.70;56.40
1936;DHT22;969;49.892;10.896;2023-08-31T06:16:30;23.70;56.40
1936;DHT22;969;49.892;10.896;2023-08-31T06:18:55;23.70;56.40
1936;DHT22;969;49.892;10.896;2023-08-31T06:21:21;23.70;56.40
1936;DHT22;969;49.892;10.896;2023-08-31T06:23:46;23.70;56.40
1936;DHT22;969;49.892;10.896;2023-08-31T06:26:12;23.70;56.40
1936;DHT22;969;49.892;10.896;2023-08-31T06:28:37;23.70;56.50
1936;DHT22;969;49.892;10.896;2023-08-31T06:31:03;23.70;56.50
1936;DHT22;969;49.892;10.896;2023-08-31T06:33:29;23.70;56.50
1936;DHT22;969;49.892;10.896;2023-08-31T06:35:55;23.70;56.50
1936;DHT22;969;49.892;10.896;2023-08-31T06:38:20;23.70;56.50
1936;DHT22;969;49.892;10.896;2023-08-31T06:40:46;23.70;56.50
1936;DHT22;969;49.892;10.896;2023-08-31T06:43:12;23.70;56.50
1936;DHT22;969;49.892;10.896;2023-08-31T06:45:38;23.70;56.50
1936;DHT22;969;49.892;10.896;2023-08-31T06:48:04;23.70;56.50
1936;DHT22;969;49.892;10.896;2023-08-31T06:50:29;23.70;56.50
1936;DHT22;969;49.892;10.896;2023-08-31T06:52:55;23.70;56.50
1936;DHT22;969;49.892;10.896;2023-08-31T06:55:21;23.70;56.50
1936;DHT22;969;49.892;10.896;2023-08-31T06:57:46;23.70;56.50
1936;DHT22;969;49.892;10.896;2023-08-31T07:00:12;23.70;56.50
1936;DHT22;969;49.892;10.896;2023-08-31T07:02:41;23.70;56.40
1936;DHT22;969;49.892;10.896;2023-08-31T07:05:10;23.70;56.40
1936;DHT22;969;49.892;10.896;2023-08-31T07:07:36;23.70;56.40
1936;DHT22;969;49.892;10.896;2023-08-31T07:10:02;23.70;56.40
1936;DHT22;969;49.892;10.896;2023-08-31T07:12:28;23.70;56.40
1936;DHT22;969;49.892;10.896;2023-08-31T07:14:53;23.70;56.40
1936;DHT22;969;49.892;10.896;2023-08-31T07:17:19;23.70;56.30
1936;DHT22;969;49.892;10.896;2023-08-31T07:19:45;23.70;56.50
1936;DHT22;969;49.892;10.896;2023-08-31T07:22:11;23.70;56.20
1936;DHT22;969;49.892;10.896;2023-08-31T07:24:37;23.70;56.20
1936;DHT22;969;49.892;10.896;2023-08-31T07:27:03;23.70;56.20
1936;DHT22;969;49.892;10.896;2023-08-31T07:29:29;23.70;56.10
1936;DHT22;969;49.892;10.896;2023-08-31T07:31:55;23.70;56.20
1936;DHT22;969;49.892;10.896;2023-08-31T07:34:20;23.70;56.20
1936;DHT22;969;49.892;10.896;2023-08-31T07:36:46;23.70;56.80
1936;DHT22;969;49.892;10.896;2023-08-31T07:39:12;23.70;56.30
1936;DHT22;969;49.892;10.896;2023-08-31T07:41:38;23.70;56.30
1936;DHT22;969;49.892;10.896;2023-08-31T07:44:04;23.80;56.40
1936;DHT22;969;49.892;10.896;2023-08-31T07:46:30;23.80;56.40
1936;DHT22;969;49.892;10.896;2023-08-31T07:48:55;23.80;56.20
1936;DHT22;969;49.892;10.896;2023-08-31T07:51:21;23.80;56.10
1936;DHT22;969;49.892;10.896;2023-08-31T07:53:49;23.80;56.00
1936;DHT22;969;49.892;10.896;2023-08-31T07:56:15;23.90;56.00
1936;DHT22;969;49.892;10.896;2023-08-31T07:58:40;23.80;55.90
1936;DHT22;969;49.892;10.896;2023-08-31T08:01:06;23.90;56.00
1936;DHT22;969;49.892;10.896;2023-08-31T08:03:32;23.80;55.90
1936;DHT22;969;49.892;10.896;2023-08-31T08:05:57;23.80;55.90
1936;DHT22;969;49.892;10.896;2023-08-31T08:08:23;23.90;55.90
1936;DHT22;969;49.892;10.896;2023-08-31T08:10:53;23.90;55.90
1936;DHT22;969;49.892;10.896;2023-08-31T08:13:18;23.90;55.90
1936;DHT22;969;49.892;10.896;2023-08-31T08:15:45;23.90;55.90
1936;DHT22;969;49.892;10.896;2023-08-31T08:18:11;23.90;55.90
1936;DHT22;969;49.892;10.896;2023-08-31T08:20:36;23.90;55.90
1936;DHT22;969;49.892;10.896;2023-08-31T08:23:02;23.90;55.90
1936;DHT22;969;49.892;10.896;2023-08-31T08:25:28;23.90;55.90
1936;DHT22;969;49.892;10.896;2023-08-31T08:27:53;23.90;56.00
1936;DHT22;969;49.892;10.896;2023-08-31T08:30:19;23.90;56.00
1936;DHT22;969;49.892;10.896;2023-08-31T08:32:45;23.90;56.00
1936;DHT22;969;49.892;10.896;2023-08-31T08:35:10;23.90;56.00
1936;DHT22;969;49.892;10.896;2023-08-31T08:37:36;23.90;56.00
1936;DHT22;969;49.892;10.896;2023-08-31T08:40:02;24.00;56.10
1936;DHT22;969;49.892;10.896;2023-08-31T08:42:30;24.00;56.10
1936;DHT22;969;49.892;10.896;2023-08-31T08:45:01;24.00;56.10
1936;DHT22;969;49.892;10.896;2023-08-31T08:47:27;24.00;56.10
1936;DHT22;969;49.892;10.896;2023-08-31T08:49:53;24.00;56.10
1936;DHT22;969;49.892;10.896;2023-08-31T08:52:20;24.00;56.10
1936;DHT22;969;49.892;10.896;2023-08-31T08:54:47;24.00;56.10
1936;DHT22;969;49.892;10.896;2023-08-31T08:57:14;24.00;56.10
1936;DHT22;969;49.892;10.896;2023-08-31T08:59:39;24.00;56.10
1936;DHT22;969;49.892;10.896;2023-08-31T09:02:06;24.00;56.10
1936;DHT22;969;49.892;10.896;2023-08-31T09:04:34;24.00;56.10
1936;DHT22;969;49.892;10.896;2023-08-31T09:07:00;24.00;56.10
1936;DHT22;969;49.892;10.896;2023-08-31T09:09:25;24.00;56.10
1936;DHT22;969;49.892;10.896;2023-08-31T09:11:51;24.10;56.10
1936;DHT22;969;49.892;10.896;2023-08-31T09:14:19;24.00;56.10
1936;DHT22;969;49.892;10.896;2023-08-31T09:16:46;24.10;56.10
1936;DHT22;969;49.892;10.896;2023-08-31T09:19:22;24.10;56.10
1936;DHT22;969;49.892;10.896;2023-08-31T09:21:50;24.10;56.10
1936;DHT22;969;49.892;10.896;2023-08-31T09:24:15;24.10;56.10
1936;DHT22;969;49.892;10.896;2023-08-31T09:26:44;24.10;56.10
1936;DHT22;969;49.892;10.896;2023-08-31T09:29:11;24.10;56.10
1936;DHT22;969;49.892;10.896;2023-08-31T09:31:37;24.10;56.10
1936;DHT22;969;49.892;10.896;2023-08-31T09:34:03;24.10;56.10
1936;DHT22;969;49.892;10.896;2023-08-31T09:36:29;24.10;56.10
1936;DHT22;969;49.892;10.896;2023-08-31T09:38:58;24.10;56.10
1936;DHT22;969;49.892;10.896;2023-08-31T09:41:24;24.10;56.10
1936;DHT22;969;49.892;10.896;2023-08-31T09:43:50;24.10;56.10
1936;DHT22;969;49.892;10.896;2023-08-31T09:46:16;24.10;56.10
1936;DHT22;969;49.892;10.896;2023-08-31T09:48:43;24.10;56.10
1936;DHT22;969;49.892;10.896;2023-08-31T09:51:14;24.10;56.10
1936;DHT22;969;49.892;10.896;2023-08-31T09:53:41;24.10;56.20
1936;DHT22;969;49.892;10.896;2023-08-31T09:56:08;24.10;56.10
1936;DHT22;969;49.892;10.896;2023-08-31T09:58:36;24.10;56.10
1936;DHT22;969;49.892;10.896;2023-08-31T10:01:01;24.10;56.10
1936;DHT22;969;49.892;10.896;2023-08-31T10:03:28;24.10;56.10
1936;DHT22;969;49.892;10.896;2023-08-31T10:05:54;24.20;56.20
1936;DHT22;969;49.892;10.896;2023-08-31T10:08:20;24.20;56.20
1936;DHT22;969;49.892;10.896;2023-08-31T10:10:46;24.20;56.20
1936;DHT22;969;49.892;10.896;2023-08-31T10:13:12;24.20;56.20
1936;DHT22;969;49.892;10.896;2023-08-31T10:15:38;24.20;56.20
1936;DHT22;969;49.892;10.896;2023-08-31T10:18:06;24.20;56.20
1936;DHT22;969;49.892;10.896;2023-08-31T10:20:33;24.20;56.10
1936;DHT22;969;49.892;10.896;2023-08-31T10:23:04;24.20;56.20
1936;DHT22;969;49.892;10.896;2023-08-31T10:28:25;24.20;56.10
1936;DHT22;969;49.892;10.896;2023-08-31T10:31:07;24.20;56.20
1936;DHT22;969;49.892;10.896;2023-08-31T10:33:41;24.20;56.20
1936;DHT22;969;49.892;10.896;2023-08-31T10:36:18;24.20;56.20
1936;DHT22;969;49.892;10.896;2023-08-31T10:39:00;24.20;56.20
1936;DHT22;969;49.892;10.896;2023-08-31T10:41:35;24.20;56.20
1936;DHT22;969;49.892;10.896;2023-08-31T10:44:00;24.20;56.20
1936;DHT22;969;49.892;10.896;2023-08-31T10:46:41;24.20;56.20
1936;DHT22;969;49.892;10.896;2023-08-31T10:51:38;24.20;56.20
1936;DHT22;969;49.892;10.896;2023-08-31T10:54:08;24.20;56.20
1936;DHT22;969;49.892;10.896;2023-08-31T10:59:53;24.20;56.20
1936;DHT22;969;49.892;10.896;2023-08-31T11:07:32;24.20;56.20
1936;DHT22;969;49.892;10.896;2023-08-31T11:10:14;24.30;56.20
1936;DHT22;969;49.892;10.896;2023-08-31T11:12:42;24.30;56.80
1936;DHT22;969;49.892;10.896;2023-08-31T11:15:10;24.30;56.20
1936;DHT22;969;49.892;10.896;2023-08-31T11:17:36;24.30;56.20
1936;DHT22;969;49.892;10.896;2023-08-31T11:20:05;24.30;56.20
1936;DHT22;969;49.892;10.896;2023-08-31T11:22:31;24.30;56.10
1936;DHT22;969;49.892;10.896;2023-08-31T11:24:59;24.30;56.10
1936;DHT22;969;49.892;10.896;2023-08-31T11:27:25;24.30;56.00
1936;DHT22;969;49.892;10.896;2023-08-31T11:29:50;24.30;55.80
1936;DHT22;969;49.892;10.896;2023-08-31T11:32:16;24.30;55.60
1936;DHT22;969;49.892;10.896;2023-08-31T11:34:43;24.30;55.40
1936;DHT22;969;49.892;10.896;2023-08-31T11:37:13;24.30;55.20
1936;DHT22;969;49.892;10.896;2023-08-31T11:39:49;24.30;55.10
1936;DHT22;969;49.892;10.896;2023-08-31T11:42:16;24.30;54.90
1936;DHT22;969;49.892;10.896;2023-08-31T11:44:42;24.30;54.60
1936;DHT22;969;49.892;10.896;2023-08-31T11:47:07;24.20;54.40
1936;DHT22;969;49.892;10.896;2023-08-31T11:49:33;24.20;54.50
1936;DHT22;969;49.892;10.896;2023-08-31T11:51:59;24.20;54.70
1936;DHT22;969;49.892;10.896;2023-08-31T11:54:26;24.20;54.80
1936;DHT22;969;49.892;10.896;2023-08-31T11:56:51;24.20;54.80
1936;DHT22;969;49.892;10.896;2023-08-31T11:59:18;24.20;54.80
1936;DHT22;969;49.892;10.896;2023-08-31T12:01:46;24.20;54.80
1936;DHT22;969;49.892;10.896;2023-08-31T12:04:15;24.20;54.70
1936;DHT22;969;49.892;10.896;2023-08-31T12:06:41;24.20;54.70
1936;DHT22;969;49.892;10.896;2023-08-31T12:09:10;24.20;54.80
1936;DHT22;969;49.892;10.896;2023-08-31T12:11:36;24.20;54.80
1936;DHT22;969;49.892;10.896;2023-08-31T12:14:22;24.20;54.90
1936;DHT22;969;49.892;10.896;2023-08-31T12:16:48;24.20;54.90
1936;DHT22;969;49.892;10.896;2023-08-31T12:19:15;24.10;54.80
1936;DHT22;969;49.892;10.896;2023-08-31T12:21:43;24.10;54.90
1936;DHT22;969;49.892;10.896;2023-08-31T12:24:09;24.10;54.90
1936;DHT22;969;49.892;10.896;2023-08-31T12:26:35;24.10;55.00
1936;DHT22;969;49.892;10.896;2023-08-31T12:29:01;24.10;55.00
1936;DHT22;969;49.892;10.896;2023-08-31T12:31:28;24.10;55.10
1936;DHT22;969;49.892;10.896;2023-08-31T12:33:53;24.10;55.10
1936;DHT22;969;49.892;10.896;2023-08-31T12:36:19;24.10;55.10
1936;DHT22;969;49.892;10.896;2023-08-31T12:38:45;24.10;55.20
1936;DHT22;969;49.892;10.896;2023-08-31T12:41:11;24.10;55.20
1936;DHT22;969;49.892;10.896;2023-08-31T12:43:37;24.10;55.20
1936;DHT22;969;49.892;10.896;2023-08-31T12:46:02;24.10;55.20
1936;DHT22;969;49.892;10.896;2023-08-31T12:48:35;24.10;55.30
1936;DHT22;969;49.892;10.896;2023-08-31T12:51:00;24.10;55.30
1936;DHT22;969;49.892;10.896;2023-08-31T12:53:26;24.10;55.30
1936;DHT22;969;49.892;10.896;2023-08-31T12:55:52;24.10;55.30
1936;DHT22;969;49.892;10.896;2023-08-31T12:58:18;24.10;55.30
1936;DHT22;969;49.892;10.896;2023-08-31T13:00:45;24.00;55.20
1936;DHT22;969;49.892;10.896;2023-08-31T13:03:12;24.10;55.40
1936;DHT22;969;49.892;10.896;2023-08-31T13:05:39;24.00;55.30
1936;DHT22;969;49.892;10.896;2023-08-31T13:08:06;24.10;55.40
1936;DHT22;969;49.892;10.896;2023-08-31T13:10:32;24.00;55.30
1936;DHT22;969;49.892;10.896;2023-08-31T13:12:57;24.00;55.30
1936;DHT22;969;49.892;10.896;2023-08-31T13:15:23;24.00;55.30
1936;DHT22;969;49.892;10.896;2023-08-31T13:17:49;24.00;55.40
1936;DHT22;969;49.892;10.896;2023-08-31T13:20:14;24.10;55.40
1936;DHT22;969;49.892;10.896;2023-08-31T13:22:40;24.00;55.40
1936;DHT22;969;49.892;10.896;2023-08-31T13:25:06;24.00;55.50
1936;DHT22;969;49.892;10.896;2023-08-31T13:27:31;24.00;55.50
1936;DHT22;969;49.892;10.896;2023-08-31T13:29:59;24.00;55.60
1936;DHT22;969;49.892;10.896;2023-08-31T13:32:24;24.00;55.60
1936;DHT22;969;49.892;10.896;2023-08-31T13:34:50;24.00;55.70
1936;DHT22;969;49.892;10.896;2023-08-31T13:37:16;24.10;55.80
1936;DHT22;969;49.892;10.896;2023-08-31T13:39:42;24.00;55.70
1936;DHT22;969;49.892;10.896;2023-08-31T13:42:07;24.10;55.80
1936;DHT22;969;49.892;10.896;2023-08-31T13:44:33;24.10;55.80
1936;DHT22;969;49.892;10.896;2023-08-31T13:46:59;24.10;55.80
1936;DHT22;969;49.892;10.896;2023-08-31T13:49:24;24.10;55.80
1936;DHT22;969;49.892;10.896;2023-08-31T13:51:50;24.10;55.80
1936;DHT22;969;49.892;10.896;2023-08-31T13:54:16;24.10;55.80
1936;DHT22;969;49.892;10.896;2023-08-31T13:56:41;24.10;55.80
1936;DHT22;969;49.892;10.896;2023-08-31T13:59:09;24.10;56.40
1936;DHT22;969;49.892;10.896;2023-08-31T14:01:34;24.10;55.90
1936;DHT22;969;49.892;10.896;2023-08-31T14:04:01;24.10;55.80
1936;DHT22;969;49.892;10.896;2023-08-31T14:06:29;24.10;55.80
1936;DHT22;969;49.892;10.896;2023-08-31T14:08:54;24.20;55.90
1936;DHT22;969;49.892;10.896;2023-08-31T14:11:20;24.20;55.90
1936;DHT22;969;49.892;10.896;2023-08-31T14:13:45;24.20;55.90
1936;DHT22;969;49.892;10.896;2023-08-31T14:16:12;24.20;55.90
1936;DHT22;969;49.892;10.896;2023-08-31T14:18:37;24.20;55.90
1936;DHT22;969;49.892;10.896;2023-08-31T14:21:03;24.20;55.90
1936;DHT22;969;49.892;10.896;2023-08-31T14:23:29;24.20;55.90
1936;DHT22;969;49.892;10.896;2023-08-31T14:26:01;24.20;55.90
1936;DHT22;969;49.892;10.896;2023-08-31T14:28:28;24.20;56.50
1936;DHT22;969;49.892;10.896;2023-08-31T14:30:54;24.20;55.90
1936;DHT22;969;49.892;10.896;2023-08-31T14:33:19;24.20;55.90
1936;DHT22;969;49.892;10.896;2023-08-31T14:35:45;24.20;55.90
1936;DHT22;969;49.892;10.896;2023-08-31T14:38:11;24.20;55.90
1936;DHT22;969;49.892;10.896;2023-08-31T14:40:40;24.30;56.20
1936;DHT22;969;49.892;10.896;2023-08-31T14:43:07;24.30;56.00
1936;DHT22;969;49.892;10.896;2023-08-31T14:45:33;24.30;56.10
1936;DHT22;969;49.892;10.896;2023-08-31T14:47:58;24.30;56.00
1936;DHT22;969;49.892;10.896;2023-08-31T14:50:24;24.30;56.10
1936;DHT22;969;49.892;10.896;2023-08-31T14:52:50;24.30;56.00
1936;DHT22;969;49.892;10.896;2023-08-31T14:55:15;24.30;56.00
1936;DHT22;969;49.892;10.896;2023-08-31T14:57:41;24.30;56.00
1936;DHT22;969;49.892;10.896;2023-08-31T15:00:08;24.30;56.00
1936;DHT22;969;49.892;10.896;2023-08-31T15:02:34;24.30;56.00
1936;DHT22;969;49.892;10.896;2023-08-31T15:05:00;24.30;56.00
1936;DHT22;969;49.892;10.896;2023-08-31T15:07:25;24.30;56.00
1936;DHT22;969;49.892;10.896;2023-08-31T15:09:52;24.30;56.00
1936;DHT22;969;49.892;10.896;2023-08-31T15:12:18;24.30;56.00
1936;DHT22;969;49.892;10.896;2023-08-31T15:14:43;24.30;56.00
1936;DHT22;969;49.892;10.896;2023-08-31T15:17:09;24.30;56.00
1936;DHT22;969;49.892;10.896;2023-08-31T15:19:34;24.30;56.00
1936;DHT22;969;49.892;10.896;2023-08-31T15:22:00;24.30;56.00
1936;DHT22;969;49.892;10.896;2023-08-31T15:24:26;24.30;56.00
1936;DHT22;969;49.892;10.896;2023-08-31T15:26:51;24.30;56.00
1936;DHT22;969;49.892;10.896;2023-08-31T15:29:17;24.30;56.00
1936;DHT22;969;49.892;10.896;2023-08-31T15:31:43;24.30;56.00
1936;DHT22;969;49.892;10.896;2023-08-31T15:34:12;24.30;56.00
1936;DHT22;969;49.892;10.896;2023-08-31T15:36:38;24.30;56.00
1936;DHT22;969;49.892;10.896;2023-08-31T15:39:04;24.30;56.00
1936;DHT22;969;49.892;10.896;2023-08-31T15:41:29;24.30;56.00
1936;DHT22;969;49.892;10.896;2023-08-31T15:44:00;24.40;56.10
1936;DHT22;969;49.892;10.896;2023-08-31T15:46:26;24.40;56.10
1936;DHT22;969;49.892;10.896;2023-08-31T15:48:51;24.40;56.10
1936;DHT22;969;49.892;10.896;2023-08-31T15:51:17;24.40;56.10
1936;DHT22;969;49.892;10.896;2023-08-31T15:53:42;24.40;56.10
1936;DHT22;969;49.892;10.896;2023-08-31T15:56:08;24.40;56.10
1936;DHT22;969;49.892;10.896;2023-08-31T15:58:34;24.40;56.10
1936;DHT22;969;49.892;10.896;2023-08-31T16:00:59;24.40;56.10
1936;DHT22;969;49.892;10.896;2023-08-31T16:03:32;24.40;56.10
1936;DHT22;969;49.892;10.896;2023-08-31T16:05:58;24.40;56.10
1936;DHT22;969;49.892;10.896;2023-08-31T16:08:24;24.40;56.10
1936;DHT22;969;49.892;10.896;2023-08-31T16:10:50;24.40;56.10
1936;DHT22;969;49.892;10.896;2023-08-31T16:13:17;24.40;56.10